createdAt,value
2023-04-20T00:01:44.593Z,33.10
2023-04-20T00:04:12.159Z,33.30
2023-04-20T00:06:39.311Z,33.50
2023-04-20T00:09:06.352Z,33.60
2023-04-20T00:11:34.022Z,33.60
2023-04-20T00:14:01.006Z,33.90
2023-04-20T00:16:28.292Z,34.20
2023-04-20T00:18:56.003Z,34.20
2023-04-20T00:21:24.330Z,34.20
2023-04-20T00:23:52.171Z,34.10
2023-04-20T00:26:20.189Z,34.20
2023-04-20T00:28:47.293Z,34.20
2023-04-20T00:31:14.310Z,34.20
2023-04-20T00:33:41.468Z,34.40
2023-04-20T00:36:09.001Z,34.20
2023-04-20T00:38:36.501Z,33.80
2023-04-20T00:41:03.577Z,34.00
2023-04-20T00:43:30.808Z,33.80
2023-04-20T00:45:58.058Z,33.60
2023-04-20T00:48:25.387Z,33.70
2023-04-20T00:50:52.964Z,33.70
2023-04-20T00:53:20.669Z,33.80
2023-04-20T00:55:48.141Z,34.10
2023-04-20T00:58:15.186Z,33.80
2023-04-20T01:00:42.323Z,33.70
2023-04-20T01:03:09.765Z,34.20
2023-04-20T01:05:37.059Z,34.40
2023-04-20T01:08:04.170Z,34.60
2023-04-20T01:10:31.776Z,34.10
2023-04-20T01:12:59.386Z,33.90
2023-04-20T01:15:28.907Z,34.00
2023-04-20T01:17:58.244Z,33.60
2023-04-20T01:20:25.663Z,33.80
2023-04-20T01:22:56.533Z,33.80
2023-04-20T01:25:23.608Z,33.10
2023-04-20T01:27:51.669Z,33.30
2023-04-20T01:30:18.792Z,33.80
2023-04-20T01:32:46.344Z,34.10
2023-04-20T01:35:13.830Z,34.20
2023-04-20T01:37:41.496Z,34.40
2023-04-20T01:40:13.065Z,34.50
2023-04-20T01:42:40.147Z,34.40
2023-04-20T01:45:07.927Z,34.60
2023-04-20T01:47:36.084Z,34.40
2023-04-20T01:50:03.274Z,34.40
2023-04-20T01:52:30.403Z,34.20
2023-04-20T01:54:57.433Z,34.40
2023-04-20T01:57:24.573Z,34.50
2023-04-20T01:59:51.702Z,34.70
2023-04-20T02:02:18.796Z,34.90
2023-04-20T02:04:45.856Z,34.70
2023-04-20T02:07:12.835Z,34.60
2023-04-20T02:09:40.037Z,34.70
2023-04-20T02:12:07.203Z,34.60
2023-04-20T02:14:34.214Z,34.60
2023-04-20T02:17:01.923Z,34.60
2023-04-20T02:19:29.189Z,34.70
2023-04-20T02:21:56.144Z,34.70
2023-04-20T02:24:23.115Z,34.40
2023-04-20T02:26:50.119Z,34.80
2023-04-20T02:29:17.677Z,34.90
2023-04-20T02:31:45.882Z,34.90
2023-04-20T02:34:12.964Z,35.00
2023-04-20T02:36:39.925Z,35.00
2023-04-20T02:39:06.961Z,34.80
2023-04-20T02:41:34.057Z,34.40
2023-04-20T02:44:01.132Z,34.30
2023-04-20T02:46:28.175Z,34.10
2023-04-20T02:48:56.138Z,34.00
2023-04-20T02:51:23.127Z,34.10
2023-04-20T02:53:50.136Z,33.90
2023-04-20T02:56:17.259Z,34.00
2023-04-20T02:58:44.512Z,34.10
2023-04-20T03:01:11.748Z,34.10
2023-04-20T03:03:38.956Z,34.20
2023-04-20T03:06:06.450Z,34.30
2023-04-20T03:08:33.417Z,34.30
2023-04-20T03:11:00.654Z,34.50
2023-04-20T03:13:27.625Z,34.70
2023-04-20T03:15:54.984Z,34.90
2023-04-20T03:18:22.317Z,34.60
2023-04-20T03:20:50.764Z,34.60
2023-04-20T03:23:17.781Z,34.70
2023-04-20T03:25:47.156Z,34.80
2023-04-20T03:28:14.452Z,34.60
2023-04-20T03:30:41.563Z,34.60
2023-04-20T03:33:09.213Z,34.60
2023-04-20T03:35:39.428Z,34.70
2023-04-20T03:38:06.802Z,34.50
2023-04-20T03:40:33.853Z,34.40
2023-04-20T03:43:01.025Z,34.40
2023-04-20T03:45:31.674Z,34.20
2023-04-20T03:47:58.984Z,34.10
2023-04-20T03:50:26.503Z,34.00
2023-04-20T03:52:53.657Z,33.80
2023-04-20T03:55:20.810Z,33.80
2023-04-20T03:57:49.116Z,33.50
2023-04-20T04:00:16.578Z,33.50
2023-04-20T04:02:43.916Z,33.70
2023-04-20T04:05:11.142Z,33.80
2023-04-20T04:07:38.173Z,33.40
2023-04-20T04:10:06.661Z,33.30
2023-04-20T04:12:33.666Z,33.10
2023-04-20T04:15:01.719Z,33.50
2023-04-20T04:17:28.788Z,33.20
2023-04-20T04:19:55.942Z,33.50
2023-04-20T04:22:22.915Z,33.80
2023-04-20T04:24:49.931Z,33.80
2023-04-20T04:27:18.774Z,33.90
2023-04-20T04:29:47.351Z,33.70
2023-04-20T04:32:14.836Z,33.50
2023-04-20T04:34:45.974Z,33.80
2023-04-20T04:37:13.152Z,33.90
2023-04-20T04:39:40.229Z,33.50
2023-04-20T04:42:07.297Z,33.60
2023-04-20T04:44:34.907Z,33.10
2023-04-20T04:47:03.633Z,33.20
2023-04-20T04:49:31.019Z,33.70
2023-04-20T04:51:58.049Z,33.90
2023-04-20T04:54:25.138Z,34.20
2023-04-20T04:56:52.199Z,34.30
2023-04-20T04:59:19.312Z,34.00
2023-04-20T05:01:46.456Z,34.40
2023-04-20T05:04:13.715Z,34.20
2023-04-20T05:06:40.767Z,34.40
2023-04-20T05:09:08.209Z,34.30
2023-04-20T05:11:35.352Z,33.90
2023-04-20T05:14:03.553Z,34.30
2023-04-20T05:16:30.693Z,34.60
2023-04-20T05:18:57.877Z,34.80
2023-04-20T05:21:24.993Z,35.10
2023-04-20T05:23:52.008Z,35.10
2023-04-20T05:26:19.005Z,35.30
2023-04-20T05:28:46.058Z,34.60
2023-04-20T05:31:13.044Z,34.60
2023-04-20T05:33:40.514Z,34.80
2023-04-20T05:36:10.676Z,35.00
2023-04-20T05:38:38.009Z,34.70
2023-04-20T05:41:05.158Z,35.20
2023-04-20T05:43:32.174Z,34.30
2023-04-20T05:45:59.413Z,34.10
2023-04-20T05:48:29.868Z,33.70
2023-04-20T05:50:57.679Z,32.40
2023-04-20T05:53:24.679Z,32.60
2023-04-20T05:55:52.090Z,33.40
2023-04-20T05:58:19.530Z,34.40
2023-04-20T06:00:46.661Z,34.70
2023-04-20T06:03:13.956Z,35.10
2023-04-20T06:05:41.207Z,35.50
2023-04-20T06:08:08.326Z,35.80
2023-04-20T06:10:35.528Z,36.00
2023-04-20T06:13:02.582Z,36.10
2023-04-20T06:15:29.645Z,36.10
2023-04-20T06:17:56.781Z,36.00
2023-04-20T06:20:24.279Z,35.60
2023-04-20T06:22:51.415Z,35.90
2023-04-20T06:25:18.416Z,36.30
2023-04-20T06:27:45.616Z,36.40
2023-04-20T06:30:15.744Z,36.80
2023-04-20T06:32:42.814Z,36.20
2023-04-20T06:35:10.023Z,36.40
2023-04-20T06:37:38.804Z,36.70
2023-04-20T06:40:09.738Z,36.90
2023-04-20T06:42:37.777Z,37.00
2023-04-20T06:45:08.335Z,36.70
2023-04-20T06:47:35.659Z,36.80
2023-04-20T06:50:05.214Z,36.90
2023-04-20T06:52:32.515Z,36.90
2023-04-20T06:55:00.557Z,37.10
2023-04-20T06:57:28.266Z,36.80
2023-04-20T06:59:55.347Z,37.00
2023-04-20T07:02:22.534Z,37.20
2023-04-20T07:04:49.637Z,37.20
2023-04-20T07:07:16.820Z,37.50
2023-04-20T07:09:44.029Z,37.10
2023-04-20T07:12:11.940Z,37.20
2023-04-20T07:14:39.105Z,37.10
2023-04-20T07:17:06.384Z,37.10
2023-04-20T07:19:33.468Z,36.80
2023-04-20T07:22:03.052Z,36.80
2023-04-20T07:24:30.089Z,36.70
2023-04-20T07:26:57.361Z,37.00
2023-04-20T07:29:24.387Z,37.10
2023-04-20T07:31:51.476Z,36.80
2023-04-20T07:34:19.491Z,36.70
2023-04-20T07:36:46.864Z,36.40
2023-04-20T07:39:15.917Z,35.50
2023-04-20T07:41:43.933Z,35.40
2023-04-20T07:44:12.764Z,35.80
2023-04-20T07:46:39.847Z,35.90
2023-04-20T07:49:06.910Z,35.80
2023-04-20T07:51:34.497Z,36.10
2023-04-20T07:54:01.738Z,36.60
2023-04-20T07:56:28.895Z,36.10
2023-04-20T07:58:55.953Z,35.70
2023-04-20T08:01:26.384Z,36.00
2023-04-20T08:03:55.980Z,34.70
2023-04-20T08:06:23.247Z,34.10
2023-04-20T08:08:50.309Z,35.00
2023-04-20T08:11:17.295Z,35.40
2023-04-20T08:13:44.338Z,35.40
2023-04-20T08:16:11.396Z,36.10
2023-04-20T08:18:39.988Z,37.40
2023-04-20T08:21:07.317Z,37.60
2023-04-20T08:23:34.429Z,38.30
2023-04-20T08:26:01.515Z,39.10
2023-04-20T08:28:33.799Z,39.90
2023-04-20T08:31:01.758Z,41.30
2023-04-20T08:33:28.818Z,41.80
2023-04-20T08:35:55.850Z,42.90
2023-04-20T08:38:33.843Z,43.90
2023-04-20T08:41:01.740Z,44.70
2023-04-20T08:43:29.120Z,44.70
2023-04-20T08:46:02.983Z,44.30
2023-04-20T08:48:36.582Z,45.40
2023-04-20T08:51:04.999Z,45.80
2023-04-20T08:53:33.314Z,46.00
2023-04-20T08:56:00.655Z,46.10
2023-04-20T08:58:35.669Z,45.10
2023-04-20T09:01:02.913Z,43.90
2023-04-20T09:03:41.701Z,45.30
2023-04-20T09:06:17.335Z,46.10
2023-04-20T09:08:48.659Z,46.20
2023-04-20T09:11:30.113Z,46.50
2023-04-20T09:14:02.586Z,47.00
2023-04-20T09:16:30.072Z,47.00
2023-04-20T09:18:58.042Z,46.90
2023-04-20T09:21:28.146Z,47.00
2023-04-20T09:24:00.964Z,46.70
2023-04-20T09:26:31.431Z,47.20
2023-04-20T09:28:58.569Z,46.90
2023-04-20T09:31:25.711Z,46.50
2023-04-20T09:34:00.669Z,45.30
2023-04-20T09:36:44.848Z,45.10
2023-04-20T09:39:19.578Z,45.50
2023-04-20T09:41:47.404Z,45.40
2023-04-20T09:44:17.187Z,45.10
2023-04-20T09:46:45.774Z,44.40
2023-04-20T09:49:14.254Z,44.10
2023-04-20T09:51:45.387Z,44.90
2023-04-20T09:54:13.601Z,44.80
2023-04-20T09:56:40.814Z,44.80
2023-04-20T09:59:08.536Z,45.50
2023-04-20T10:01:36.518Z,44.20
2023-04-20T10:04:14.853Z,44.80
2023-04-20T10:06:58.116Z,43.50
2023-04-20T10:09:26.702Z,43.00
2023-04-20T10:12:00.152Z,44.10
2023-04-20T10:14:27.195Z,44.80
2023-04-20T10:17:09.115Z,44.90
2023-04-20T10:19:46.984Z,44.10
2023-04-20T10:22:33.971Z,43.70
2023-04-20T10:25:02.503Z,43.80
2023-04-20T10:27:32.302Z,45.00
2023-04-20T10:30:10.608Z,44.70
2023-04-20T10:32:37.799Z,44.70
2023-04-20T10:35:10.751Z,45.50
2023-04-20T10:37:48.976Z,45.30
2023-04-20T10:40:16.249Z,45.90
2023-04-20T10:42:46.336Z,46.30
2023-04-20T10:45:13.780Z,46.90
2023-04-20T10:47:41.246Z,46.80
2023-04-20T10:50:13.858Z,47.10
2023-04-20T10:52:42.875Z,46.90
2023-04-20T10:55:38.977Z,44.70
2023-04-20T10:58:06.041Z,44.60
2023-04-20T11:00:33.034Z,44.60
2023-04-20T11:03:00.127Z,44.00
2023-04-20T11:05:28.128Z,43.40
2023-04-20T11:07:57.260Z,42.80
2023-04-20T11:10:41.723Z,42.40
2023-04-20T11:13:20.728Z,41.10
2023-04-20T11:15:47.861Z,41.40
2023-04-20T11:18:15.396Z,42.40
2023-04-20T11:20:54.789Z,42.90
2023-04-20T11:23:24.466Z,43.60
2023-04-20T11:25:52.992Z,43.30
2023-04-20T11:28:20.148Z,42.90
2023-04-20T11:30:47.708Z,42.80
2023-04-20T11:33:24.878Z,41.90
2023-04-20T11:35:52.234Z,40.80
2023-04-20T11:38:31.727Z,40.30
2023-04-20T11:41:04.719Z,40.50
2023-04-20T11:43:33.150Z,40.30
2023-04-20T11:46:03.008Z,40.10
2023-04-20T11:48:33.403Z,40.00
2023-04-20T11:51:00.709Z,39.80
2023-04-20T11:53:27.659Z,39.10
2023-04-20T11:55:56.824Z,38.90
2023-04-20T11:58:24.881Z,38.30
2023-04-20T12:00:51.848Z,38.20
2023-04-20T12:03:19.085Z,38.20
2023-04-20T12:05:46.239Z,38.80
2023-04-20T12:08:14.897Z,38.90
2023-04-20T12:10:41.990Z,38.70
2023-04-20T12:13:08.963Z,38.20
2023-04-20T12:15:36.031Z,37.90
2023-04-20T12:18:03.133Z,37.70
2023-04-20T12:20:30.219Z,37.70
2023-04-20T12:22:58.967Z,37.70
2023-04-20T12:25:26.276Z,37.40
2023-04-20T12:27:53.514Z,37.40
2023-04-20T12:30:20.516Z,37.40
2023-04-20T12:32:47.552Z,37.50
2023-04-20T12:35:14.656Z,37.80
2023-04-20T12:37:41.629Z,38.50
2023-04-20T12:40:09.824Z,38.90
2023-04-20T12:42:36.970Z,39.10
2023-04-20T12:45:04.222Z,39.30
2023-04-20T12:47:31.450Z,39.60
2023-04-20T12:49:58.538Z,39.60
2023-04-20T12:52:26.949Z,39.60
2023-04-20T12:54:53.923Z,39.40
2023-04-20T12:57:21.022Z,39.40
2023-04-20T12:59:48.810Z,39.30
2023-04-20T13:02:16.232Z,39.40
2023-04-20T13:04:43.438Z,39.00
2023-04-20T13:07:10.498Z,39.20
2023-04-20T13:09:37.683Z,39.10
2023-04-20T13:12:05.342Z,39.30
2023-04-20T13:14:32.603Z,39.50
2023-04-20T13:17:01.967Z,38.70
2023-04-20T13:19:30.767Z,39.20
2023-04-20T13:21:58.675Z,38.90
2023-04-20T13:24:26.330Z,38.70
2023-04-20T13:27:01.519Z,39.70
2023-04-20T13:29:28.553Z,40.00
2023-04-20T13:31:55.740Z,39.80
2023-04-20T13:34:23.026Z,40.20
2023-04-20T13:36:50.497Z,40.30
2023-04-20T13:39:19.573Z,41.30
2023-04-20T13:41:49.437Z,41.40
2023-04-20T13:44:16.627Z,41.60
2023-04-20T13:46:46.271Z,41.60
2023-04-20T13:49:13.886Z,41.50
2023-04-20T13:51:41.223Z,41.50
2023-04-20T13:54:08.550Z,41.20
2023-04-20T13:56:36.557Z,41.30
2023-04-20T13:59:04.293Z,41.10
2023-04-20T14:01:31.766Z,41.10
2023-04-20T14:03:59.098Z,41.40
2023-04-20T14:06:30.062Z,41.10
2023-04-20T14:08:57.068Z,40.60
2023-04-20T14:11:24.255Z,40.40
2023-04-20T14:13:52.069Z,40.30
2023-04-20T14:16:19.192Z,40.30
2023-04-20T14:18:46.809Z,40.00
2023-04-20T14:21:16.159Z,40.20
2023-04-20T14:23:43.144Z,39.90
2023-04-20T14:26:10.467Z,39.60
2023-04-20T14:28:37.554Z,39.40
2023-04-20T14:31:04.685Z,39.90
2023-04-20T14:33:33.470Z,40.40
2023-04-20T14:36:00.566Z,40.60
2023-04-20T14:38:27.632Z,40.50
2023-04-20T14:41:02.029Z,40.30
2023-04-20T14:43:32.382Z,39.70
2023-04-20T14:46:01.454Z,39.90
2023-04-20T14:48:28.858Z,40.30
2023-04-20T14:50:56.145Z,40.30
2023-04-20T14:53:23.478Z,40.00
2023-04-20T14:55:51.377Z,40.50
2023-04-20T14:58:19.863Z,40.40
2023-04-20T15:00:49.058Z,40.10
2023-04-20T15:03:17.761Z,40.50
2023-04-20T15:05:45.804Z,40.70
2023-04-20T15:08:13.496Z,40.90
2023-04-20T15:10:41.060Z,41.10
2023-04-20T15:13:08.269Z,41.10
2023-04-20T15:15:47.624Z,41.30
2023-04-20T15:18:17.530Z,40.80
2023-04-20T15:20:45.184Z,39.80
2023-04-20T15:23:13.226Z,39.70
2023-04-20T15:25:40.563Z,39.10
2023-04-20T15:28:09.074Z,38.90
2023-04-20T15:30:36.177Z,38.70
2023-04-20T15:33:05.269Z,38.20
2023-04-20T15:35:32.987Z,37.90
2023-04-20T15:38:00.228Z,38.20
2023-04-20T15:40:28.517Z,38.00
2023-04-20T15:42:58.818Z,37.40
2023-04-20T15:45:28.204Z,37.20
2023-04-20T15:47:56.097Z,37.50
2023-04-20T15:50:23.448Z,37.70
2023-04-20T15:52:52.816Z,37.90
2023-04-20T15:55:20.088Z,37.70
2023-04-20T15:57:47.156Z,37.60
2023-04-20T16:00:16.920Z,37.30
2023-04-20T16:02:44.065Z,37.40
2023-04-20T16:05:11.150Z,37.20
2023-04-20T16:07:38.196Z,36.50
2023-04-20T16:10:06.964Z,36.50
2023-04-20T16:12:34.035Z,37.10
2023-04-20T16:15:02.048Z,37.30
2023-04-20T16:17:29.229Z,37.70
2023-04-20T16:19:56.713Z,37.70
2023-04-20T16:22:23.712Z,37.60
2023-04-20T16:24:50.981Z,38.20
2023-04-20T16:27:20.112Z,38.10
2023-04-20T16:29:48.290Z,38.30
2023-04-20T16:32:15.292Z,38.40
2023-04-20T16:34:42.413Z,38.00
2023-04-20T16:37:10.734Z,37.70
2023-04-20T16:39:37.890Z,37.70
2023-04-20T16:42:05.017Z,37.60
2023-04-20T16:44:32.001Z,37.20
2023-04-20T16:46:59.235Z,37.20
2023-04-20T16:49:26.479Z,37.80
2023-04-20T16:51:53.486Z,36.90
2023-04-20T16:54:21.581Z,37.20
2023-04-20T16:56:48.898Z,37.30
2023-04-20T16:59:16.030Z,36.90
2023-04-20T17:01:43.108Z,37.30
2023-04-20T17:04:10.294Z,37.60
2023-04-20T17:06:38.811Z,37.80
2023-04-20T17:09:07.216Z,37.60
2023-04-20T17:11:36.324Z,37.30
2023-04-20T17:14:03.495Z,37.50
2023-04-20T17:16:30.596Z,37.20
2023-04-20T17:18:58.140Z,37.10
2023-04-20T17:21:28.267Z,36.90
2023-04-20T17:23:56.588Z,37.60
2023-04-20T17:26:25.062Z,38.20
2023-04-20T17:28:52.343Z,38.00
2023-04-20T17:31:19.465Z,38.30
2023-04-20T17:33:47.933Z,38.30
2023-04-20T17:36:14.856Z,38.30
2023-04-20T17:38:43.319Z,38.10
2023-04-20T17:41:10.637Z,38.00
2023-04-20T17:43:40.544Z,38.10
2023-04-20T17:46:08.217Z,37.80
2023-04-20T17:48:35.926Z,37.70
2023-04-20T17:51:03.165Z,37.60
2023-04-20T17:53:30.154Z,37.60
2023-04-20T17:55:57.189Z,37.60
2023-04-20T17:58:25.749Z,37.50
2023-04-20T18:00:52.693Z,37.40
2023-04-20T18:03:20.506Z,37.40
2023-04-20T18:05:48.525Z,37.30
2023-04-20T18:08:17.737Z,37.40
2023-04-20T18:10:46.394Z,37.20
2023-04-20T18:13:13.484Z,37.10
2023-04-20T18:15:40.680Z,36.80
2023-04-20T18:18:07.711Z,36.60
2023-04-20T18:20:34.993Z,36.60
2023-04-20T18:23:02.112Z,36.30
2023-04-20T18:25:29.144Z,36.30
2023-04-20T18:27:56.226Z,36.50
2023-04-20T18:30:23.382Z,36.40
2023-04-20T18:32:50.472Z,36.30
2023-04-20T18:35:19.525Z,36.20
2023-04-20T18:37:46.550Z,36.20
2023-04-20T18:40:15.488Z,36.00
2023-04-20T18:42:43.905Z,36.00
2023-04-20T18:45:13.213Z,35.70
2023-04-20T18:47:40.558Z,35.50
2023-04-20T18:50:07.963Z,35.50
2023-04-20T18:52:35.366Z,35.70
2023-04-20T18:55:02.347Z,35.80
2023-04-20T18:57:29.392Z,35.80
2023-04-20T18:59:56.645Z,35.60
2023-04-20T19:02:24.100Z,35.70
2023-04-20T19:04:51.585Z,35.60
2023-04-20T19:07:19.298Z,35.50
2023-04-20T19:09:46.431Z,35.30
2023-04-20T19:12:13.660Z,35.30
2023-04-20T19:14:40.724Z,35.20
2023-04-20T19:17:08.738Z,35.60
2023-04-20T19:19:36.510Z,35.40
2023-04-20T19:22:04.481Z,35.20
2023-04-20T19:24:34.645Z,35.40
2023-04-20T19:27:02.290Z,35.40
2023-04-20T19:29:29.615Z,35.40
2023-04-20T19:31:56.772Z,35.00
2023-04-20T19:34:23.969Z,34.90
2023-04-20T19:36:51.342Z,34.90
2023-04-20T19:39:18.346Z,35.20
2023-04-20T19:41:45.954Z,34.60
2023-04-20T19:44:14.478Z,34.70
2023-04-20T19:46:43.528Z,34.60
2023-04-20T19:49:10.738Z,34.50
2023-04-20T19:51:37.724Z,34.30
2023-04-20T19:54:05.453Z,34.60
2023-04-20T19:56:33.803Z,34.40
2023-04-20T19:59:01.069Z,34.20
2023-04-20T20:01:28.246Z,34.40
2023-04-20T20:03:55.792Z,34.80
2023-04-20T20:06:23.874Z,34.70
2023-04-20T20:08:51.625Z,35.00
2023-04-20T20:11:18.724Z,35.10
2023-04-20T20:13:45.730Z,33.90
2023-04-20T20:16:12.778Z,34.20
2023-04-20T20:18:39.827Z,34.50
2023-04-20T20:21:07.077Z,34.90
2023-04-20T20:23:36.847Z,34.70
2023-04-20T20:26:04.006Z,34.80
2023-04-20T20:28:31.010Z,34.70
2023-04-20T20:30:59.641Z,34.80
2023-04-20T20:33:26.895Z,34.60
2023-04-20T20:35:53.939Z,34.60
2023-04-20T20:38:21.120Z,34.80
2023-04-20T20:40:53.794Z,34.60
2023-04-20T20:43:21.809Z,34.70
2023-04-20T20:45:50.086Z,34.70
2023-04-20T20:48:17.334Z,34.40
2023-04-20T20:50:45.183Z,34.20
2023-04-20T20:53:12.512Z,34.00
2023-04-20T20:55:39.788Z,34.30
2023-04-20T20:58:06.779Z,33.70
2023-04-20T21:00:33.844Z,34.10
2023-04-20T21:03:01.116Z,34.10
2023-04-20T21:05:28.348Z,34.40
2023-04-20T21:07:55.487Z,34.50
2023-04-20T21:10:22.608Z,34.40
2023-04-20T21:12:51.743Z,34.20
2023-04-20T21:15:19.058Z,34.30
2023-04-20T21:17:46.177Z,33.90
2023-04-20T21:20:14.029Z,34.10
2023-04-20T21:22:41.100Z,34.10
2023-04-20T21:25:08.555Z,34.30
2023-04-20T21:27:35.901Z,34.00
2023-04-20T21:30:03.319Z,34.00
2023-04-20T21:32:30.333Z,33.80
2023-04-20T21:34:57.746Z,34.10
2023-04-20T21:37:25.049Z,34.30
2023-04-20T21:39:52.352Z,34.50
2023-04-20T21:42:21.581Z,34.40
2023-04-20T21:44:48.614Z,34.40
2023-04-20T21:47:15.728Z,34.20
2023-04-20T21:49:44.249Z,33.60
2023-04-20T21:52:11.277Z,33.70
2023-04-20T21:54:40.227Z,34.20
2023-04-20T21:57:07.636Z,33.90
2023-04-20T21:59:34.647Z,33.70
2023-04-20T22:02:01.823Z,33.70
2023-04-20T22:04:29.802Z,34.00
2023-04-20T22:06:58.712Z,33.50
2023-04-20T22:09:26.112Z,33.90
2023-04-20T22:11:53.837Z,33.50
2023-04-20T22:14:20.999Z,34.00
2023-04-20T22:16:48.133Z,34.10
2023-04-20T22:19:16.366Z,33.80
2023-04-20T22:21:44.026Z,33.50
2023-04-20T22:24:11.013Z,33.90
2023-04-20T22:26:38.130Z,34.20
2023-04-20T22:29:05.250Z,34.20
2023-04-20T22:31:32.496Z,34.20
2023-04-20T22:33:59.741Z,34.40
2023-04-20T22:36:26.817Z,34.10
2023-04-20T22:38:53.840Z,33.90
2023-04-20T22:41:20.978Z,33.70
2023-04-20T22:43:49.410Z,33.90
2023-04-20T22:46:16.476Z,34.10
2023-04-20T22:48:47.236Z,34.00
2023-04-20T22:51:18.374Z,33.20
2023-04-20T22:53:45.501Z,33.70
2023-04-20T22:56:12.567Z,33.80
2023-04-20T22:58:39.623Z,33.60
2023-04-20T23:01:06.826Z,33.70
2023-04-20T23:03:34.862Z,33.70
2023-04-20T23:06:02.221Z,33.30
2023-04-20T23:08:29.683Z,33.30
2023-04-20T23:10:56.828Z,33.70
2023-04-20T23:13:26.527Z,34.00
2023-04-20T23:15:54.233Z,33.90
2023-04-20T23:18:21.623Z,33.90
2023-04-20T23:20:48.625Z,33.60
2023-04-20T23:23:15.594Z,33.50
2023-04-20T23:25:42.761Z,33.70
2023-04-20T23:28:10.136Z,33.50
2023-04-20T23:30:37.224Z,33.80
2023-04-20T23:33:04.332Z,33.90
2023-04-20T23:35:31.446Z,33.70
2023-04-20T23:37:58.447Z,34.00
2023-04-20T23:40:25.651Z,33.50
2023-04-20T23:42:53.088Z,34.00
2023-04-20T23:45:20.316Z,33.80
2023-04-20T23:47:47.618Z,34.00
2023-04-20T23:50:15.308Z,34.10
2023-04-20T23:52:42.547Z,34.00
2023-04-20T23:55:10.554Z,33.90
2023-04-20T23:57:37.548Z,34.00
